Welcome to Des Moines Iowa Weather. I am an independent private personal weather station on the Northwest Side of Des Moines, Iowa. Just East of Windsor Heights and just West of Glendale . This site is also mobile friendly.

There are no active watches, warnings or advisories


Visit our other weather sites:

Historical Data

Weather Station Setup



Weather Underground History page Text

Daily Summary for December 9, 2017 Units:  English    Metric   Both
« Previous Day
Next Day »
Daily Weekly Monthly Yearly Custom
  High: Low: Average:
Temperature: 30.6 °F 21.2 °F 25.1 °F
Dew Point: 24.0 °F 15.0 °F 17.4 °F
Humidity: 83 % 60 % 73 %
Wind Speed: 11.0 mph 0.0 mph 3.2 mph
Wind Gust: 16.0 mph - -
Wind:- - NW
Pressure: 30.20 in 29.87 in -
Precipitation: 0.00 in    
Historical Graphs
 
 
Tabular Data for December 9, 2017
Time Temperature Dew Point Pressure Wind Wind Speed Wind Gust Humidity Rainfall Rate (Hourly)
00:08 29.1 °F 24.0 °F 29.87 in NW 2.0 mph 13.0 mph 82 % 0.00 in
00:22 28.9 °F 24.0 °F 29.88 in West 2.0 mph 11.0 mph 82 % 0.00 in
00:37 28.7 °F 24.0 °F 29.88 in NW 5.0 mph 7.0 mph 81 % 0.00 in
00:52 28.4 °F 23.0 °F 29.88 in WNW 1.0 mph 4.0 mph 81 % 0.00 in
01:07 28.0 °F 23.0 °F 29.88 in WNW 3.0 mph 10.0 mph 82 % 0.00 in
01:37 27.8 °F 23.0 °F 29.88 in NW 6.0 mph 9.0 mph 83 % 0.00 in
02:08 28.8 °F 24.0 °F 29.90 in WNW 4.0 mph 10.0 mph 82 % 0.00 in
02:23 29.6 °F 24.0 °F 29.90 in WNW 5.0 mph 16.0 mph 80 % 0.00 in
02:34 30.0 °F 24.0 °F 29.91 in NW 4.0 mph 11.0 mph 78 % 0.00 in
02:49 30.2 °F 24.0 °F 29.91 in NNW 3.0 mph 12.0 mph 77 % 0.00 in
03:34 30.6 °F 23.0 °F 29.91 in North 2.0 mph 10.0 mph 74 % 0.00 in
03:49 30.4 °F 23.0 °F 29.91 in North 2.0 mph 8.0 mph 75 % 0.00 in
04:04 29.8 °F 22.0 °F 29.92 in North 4.0 mph 10.0 mph 74 % 0.00 in
04:20 29.1 °F 22.0 °F 29.93 in North 4.0 mph 11.0 mph 75 % 0.00 in
04:30 28.3 °F 21.0 °F 29.94 in North 5.0 mph 14.0 mph 74 % 0.00 in
04:45 27.3 °F 20.0 °F 29.95 in North 4.0 mph 12.0 mph 75 % 0.00 in
05:00 26.4 °F 20.0 °F 29.96 in North 3.0 mph 11.0 mph 76 % 0.00 in
05:15 25.7 °F 19.0 °F 29.97 in North 3.0 mph 10.0 mph 77 % 0.00 in
05:32 25.0 °F 19.0 °F 29.98 in North 3.0 mph 9.0 mph 78 % 0.00 in
05:47 24.4 °F 18.0 °F 29.99 in North 2.0 mph 16.0 mph 78 % 0.00 in
06:02 24.0 °F 18.0 °F 30.00 in WNW 4.0 mph 13.0 mph 79 % 0.00 in
06:08 23.9 °F 18.0 °F 30.00 in WNW 4.0 mph 14.0 mph 79 % 0.00 in
06:22 23.5 °F 18.0 °F 30.01 in North 8.0 mph 14.0 mph 79 % 0.00 in
06:33 23.4 °F 18.0 °F 30.02 in WNW 3.0 mph 14.0 mph 80 % 0.00 in
06:41 23.3 °F 18.0 °F 30.03 in WNW 8.0 mph 13.0 mph 80 % 0.00 in
06:53 23.3 °F 18.0 °F 30.04 in North 9.0 mph 12.0 mph 80 % 0.00 in
06:59 23.3 °F 18.0 °F 30.04 in North 4.0 mph 12.0 mph 80 % 0.00 in
07:10 23.3 °F 18.0 °F 30.04 in North 8.0 mph 11.0 mph 80 % 0.00 in
07:15 23.4 °F 18.0 °F 30.05 in North 3.0 mph 10.0 mph 80 % 0.00 in
07:33 23.3 °F 18.0 °F 30.05 in North 4.0 mph 9.0 mph 80 % 0.00 in
07:48 23.1 °F 18.0 °F 30.06 in North 6.0 mph 11.0 mph 79 % 0.00 in
08:03 22.7 °F 17.0 °F 30.07 in North 5.0 mph 12.0 mph 78 % 0.00 in
08:12 22.6 °F 17.0 °F 30.07 in North 4.0 mph 12.0 mph 78 % 0.00 in
08:28 22.4 °F 16.0 °F 30.08 in NNE 3.0 mph 12.0 mph 77 % 0.00 in
08:45 22.0 °F 16.0 °F 30.09 in North 2.0 mph 12.0 mph 76 % 0.00 in
08:51 21.8 °F 15.0 °F 30.10 in North 3.0 mph 12.0 mph 76 % 0.00 in
08:57 21.7 °F 15.0 °F 30.10 in North 3.0 mph 14.0 mph 76 % 0.00 in
09:07 21.7 °F 15.0 °F 30.10 in North 9.0 mph 12.0 mph 75 % 0.00 in
09:22 21.7 °F 15.0 °F 30.11 in North 4.0 mph 12.0 mph 75 % 0.00 in
09:45 21.9 °F 15.0 °F 30.13 in North 11.0 mph 16.0 mph 74 % 0.00 in
10:00 22.0 °F 15.0 °F 30.14 in North 5.0 mph 13.0 mph 74 % 0.00 in
10:18 22.2 °F 15.0 °F 30.16 in North 9.0 mph 12.0 mph 73 % 0.00 in
10:33 22.7 °F 15.0 °F 30.16 in North 2.0 mph 9.0 mph 73 % 0.00 in
10:55 23.5 °F 16.0 °F 30.16 in North 1.0 mph 10.0 mph 72 % 0.00 in
11:13 24.1 °F 16.0 °F 30.17 in North 5.0 mph 11.0 mph 70 % 0.00 in
11:22 24.5 °F 16.0 °F 30.17 in North 9.0 mph 10.0 mph 69 % 0.00 in
11:32 24.7 °F 15.0 °F 30.17 in ENE 5.0 mph 12.0 mph 68 % 0.00 in
11:44 24.9 °F 15.0 °F 30.17 in North 3.0 mph 10.0 mph 67 % 0.00 in
12:03 25.6 °F 16.0 °F 30.17 in North 2.0 mph 16.0 mph 66 % 0.00 in
12:18 26.5 °F 16.0 °F 30.17 in North 3.0 mph 15.0 mph 64 % 0.00 in
12:33 26.1 °F 15.0 °F 30.17 in North 5.0 mph 15.0 mph 63 % 0.00 in
12:48 27.6 °F 16.0 °F 30.16 in North 2.0 mph 13.0 mph 62 % 0.00 in
13:00 27.9 °F 16.0 °F 30.17 in North 10.0 mph 12.0 mph 60 % 0.00 in
13:14 27.8 °F 16.0 °F 30.16 in North 3.0 mph 10.0 mph 61 % 0.00 in
13:29 27.9 °F 16.0 °F 30.16 in North 4.0 mph 11.0 mph 60 % 0.00 in
14:13 26.9 °F 15.0 °F 30.17 in North 4.0 mph 13.0 mph 61 % 0.00 in
14:25 27.1 °F 15.0 °F 30.17 in North 5.0 mph 12.0 mph 61 % 0.00 in
14:40 27.1 °F 15.0 °F 30.18 in North 3.0 mph 10.0 mph 60 % 0.00 in
14:48 27.0 °F 15.0 °F 30.17 in North 3.0 mph 10.0 mph 60 % 0.00 in
15:03 26.9 °F 15.0 °F 30.18 in North 5.0 mph 10.0 mph 61 % 0.00 in
15:33 27.1 °F 15.0 °F 30.20 in North 1.0 mph 10.0 mph 60 % 0.00 in
15:53 27.2 °F 15.0 °F 30.20 in North 1.0 mph 10.0 mph 61 % 0.00 in
16:07 27.1 °F 15.0 °F 30.19 in North 4.0 mph 10.0 mph 61 % 0.00 in
16:22 26.9 °F 15.0 °F 30.19 in North 2.0 mph 9.0 mph 61 % 0.00 in
16:52 26.3 °F 15.0 °F 30.19 in North 1.0 mph 10.0 mph 62 % 0.00 in
17:22 26.1 °F 15.0 °F 30.20 in North 2.0 mph 4.0 mph 64 % 0.00 in
17:37 25.7 °F 15.0 °F 30.20 in Calm   2.0 mph 64 % 0.00 in
17:52 25.2 °F 15.0 °F 30.19 in Calm   2.0 mph 66 % 0.00 in
18:00 25.1 °F 15.0 °F 30.19 in Calm     66 % 0.00 in
18:16 24.7 °F 15.0 °F 30.19 in Calm     66 % 0.00 in
18:31 24.2 °F 15.0 °F 30.19 in Calm     67 % 0.00 in
18:57 23.3 °F 15.0 °F 30.18 in Calm     69 % 0.00 in
19:06 23.0 °F 15.0 °F 30.17 in Calm     70 % 0.00 in
19:12 22.9 °F 15.0 °F 30.18 in Calm     71 % 0.00 in
19:42 22.4 °F 15.0 °F 30.17 in Calm     73 % 0.00 in
21:05 22.8 °F 16.0 °F 30.14 in Calm   2.0 mph 75 % 0.00 in
21:41 22.1 °F 16.0 °F 30.12 in Calm     76 % 0.00 in
21:56 21.9 °F 16.0 °F 30.11 in Calm   1.0 mph 77 % 0.00 in
22:26 21.5 °F 16.0 °F 30.11 in Calm     78 % 0.00 in
22:41 21.4 °F 16.0 °F 30.11 in Calm   1.0 mph 78 % 0.00 in
22:56 21.3 °F 16.0 °F 30.10 in Calm   2.0 mph 79 % 0.00 in
23:11 21.3 °F 16.0 °F 30.11 in Calm     79 % 0.00 in
23:26 21.2 °F 16.0 °F 30.09 in Calm   2.0 mph 80 % 0.00 in
23:36 21.3 °F 16.0 °F 30.09 in North 1.0 mph 2.0 mph 80 % 0.00 in
Des Moines Weather and Climate
Compliments of Weather Underground - 2.75 mb

Script developed by  Jim McMurry - jmcmurry@mwt.net Adapted for the template by  Wim van der Kuil - Leuven-Template.eu

You find our weather info also at:

Weather Underground

Equipment we use:

Weather-station
Davis VP2 Plus

Weather-program
Davis Weatherlink.Com

Weather-server
iMac (Retina 4K, 21.5-inch, Late 2015)

Provider
Hostmonster.com

Davis VP2 Plus

Davis Weatherlink.Com

iMac (Retina 4K, 21.5-inch, Late 2015)

Hostmonster.com